Iruma Air Base, Japan

9:35 AM JST on June 04, 2015 (GMT +0900)
Chofu | | Change Station
CLOSE
Current Station
Airport
Location: Chofu,
Elevation: 144 ft
Nearby Weather Stations

Elev 144 ft 35.67 °N, 139.53 °E | Updated 35 minutes ago

Partly Cloudy
Partly Cloudy
75 °F
Feels Like 75 °F
N
16
Wind Variable Wind from North

Today
High -- | Low -- °F
--% Chance of Precip.
Yesterday
High -- | Low -- °F
Precip. -- in
4:26 AM 6:54 PM
Full, 98% visible
Pressure 29.59 in
Visibility 6.2 miles
Clouds Few 2000 ft
Dew Point 39 °F
Humidity 27%
Rainfall 0.00 in
Snow Depth Not available.
UV 0 out of 12
Pollen Not available.
Air Quality Not available.
Flu Activity Not available.
METAR RJTF 040000Z 35014KT 9999 FEW020 BKN/// 24/04 Q1002

More Conditions Fewer Conditions

Pressure 29.59 in
Visibility 6.2 miles
Clouds Few 2000 ft
Dew Point 39 °F
Humidity 27%
Rainfall 0.00 in
Snow Depth Not available.
UV 0 out of 12
Pollen Not available.
Air Quality Not available.
Flu Activity Not available.
METAR RJTF 040000Z 35014KT 9999 FEW020 BKN/// 24/04 Q1002

More Conditions Fewer Conditions

10-Day Weather Forecast

×

Almanac

Astronomy

Jun. 04, 2015 Rise Set
Actual Time
Civil Twilight
Nautical Twilight
Astronomical Twilight
Moon
Length of Visible Light
Length of Day
Tomorrow will be .
, % of the Moon is Illuminated

Today's Extremes

Country Highs Country Lows

Community

WunderPhotos

Upload Photos

1,826,316 photos uploaded!

WunderBlogs® & News

Nearby

Air Quality

  Air Quality AQ Index Pollutant
Not available.

Snow Depth

Station Depth Elevation

Earthquake Activity

City Distance Mag. Time & Date
Minimum magnitude displayed is 2.5.

Coastal Water Temperatures

Place Temperature

Stations

Nearby Weather Stations

Station Location Temp. Windchill Dew Point Humidity Wind Precip. Elev Updated Type